sensor_id;sensor_type;location;lat;lon;timestamp;temperature;humidity
2409;DHT22;8463;48.094;7.970;2022-09-13T00:01:14;16.00;31.30
2409;DHT22;8463;48.094;7.970;2022-09-13T00:03:39;16.00;31.30
2409;DHT22;8463;48.094;7.970;2022-09-13T00:06:16;16.00;31.00
2409;DHT22;8463;48.094;7.970;2022-09-13T00:08:43;16.00;30.80
2409;DHT22;8463;48.094;7.970;2022-09-13T00:11:18;16.00;30.60
2409;DHT22;8463;48.094;7.970;2022-09-13T00:13:44;16.00;30.40
2409;DHT22;8463;48.094;7.970;2022-09-13T00:16:12;15.80;31.20
2409;DHT22;8463;48.094;7.970;2022-09-13T00:18:38;15.80;31.20
2409;DHT22;8463;48.094;7.970;2022-09-13T00:21:07;15.80;31.10
2409;DHT22;8463;48.094;7.970;2022-09-13T00:23:33;15.80;31.30
2409;DHT22;8463;48.094;7.970;2022-09-13T00:26:35;15.70;31.80
2409;DHT22;8463;48.094;7.970;2022-09-13T00:29:00;15.70;31.70
2409;DHT22;8463;48.094;7.970;2022-09-13T00:31:28;15.70;31.90
2409;DHT22;8463;48.094;7.970;2022-09-13T00:33:54;15.60;32.20
2409;DHT22;8463;48.094;7.970;2022-09-13T00:36:20;15.40;32.50
2409;DHT22;8463;48.094;7.970;2022-09-13T00:38:45;15.40;33.20
2409;DHT22;8463;48.094;7.970;2022-09-13T00:41:13;15.40;33.70
2409;DHT22;8463;48.094;7.970;2022-09-13T00:43:58;15.40;33.70
2409;DHT22;8463;48.094;7.970;2022-09-13T00:46:34;15.50;33.60
2409;DHT22;8463;48.094;7.970;2022-09-13T00:51:33;15.60;32.10
2409;DHT22;8463;48.094;7.970;2022-09-13T00:53:59;15.60;32.50
2409;DHT22;8463;48.094;7.970;2022-09-13T00:56:41;15.60;32.50
2409;DHT22;8463;48.094;7.970;2022-09-13T00:59:24;15.50;33.00
2409;DHT22;8463;48.094;7.970;2022-09-13T01:01:54;15.50;32.90
2409;DHT22;8463;48.094;7.970;2022-09-13T01:04:21;15.40;32.90
2409;DHT22;8463;48.094;7.970;2022-09-13T01:06:51;15.50;33.50
2409;DHT22;8463;48.094;7.970;2022-09-13T01:09:18;15.20;33.20
2409;DHT22;8463;48.094;7.970;2022-09-13T01:11:47;15.40;33.50
2409;DHT22;8463;48.094;7.970;2022-09-13T01:14:17;15.40;33.70
2409;DHT22;8463;48.094;7.970;2022-09-13T01:16:43;15.50;33.20
2409;DHT22;8463;48.094;7.970;2022-09-13T01:19:08;15.50;33.10
2409;DHT22;8463;48.094;7.970;2022-09-13T01:30:17;15.70;31.80
2409;DHT22;8463;48.094;7.970;2022-09-13T01:48:53;15.80;30.20
2409;DHT22;8463;48.094;7.970;2022-09-13T01:51:32;15.80;30.30
2409;DHT22;8463;48.094;7.970;2022-09-13T01:56:42;15.90;30.00
2409;DHT22;8463;48.094;7.970;2022-09-13T02:02:00;15.80;29.90
2409;DHT22;8463;48.094;7.970;2022-09-13T02:07:08;15.80;29.90
2409;DHT22;8463;48.094;7.970;2022-09-13T02:09:42;15.80;30.10
2409;DHT22;8463;48.094;7.970;2022-09-13T02:12:21;15.80;30.20
2409;DHT22;8463;48.094;7.970;2022-09-13T02:14:57;15.70;30.20
2409;DHT22;8463;48.094;7.970;2022-09-13T02:17:28;15.70;30.30
2409;DHT22;8463;48.094;7.970;2022-09-13T02:19:58;15.70;29.90
2409;DHT22;8463;48.094;7.970;2022-09-13T02:22:30;15.30;31.10
2409;DHT22;8463;48.094;7.970;2022-09-13T02:25:06;15.30;32.00
2409;DHT22;8463;48.094;7.970;2022-09-13T02:27:33;15.40;31.80
2409;DHT22;8463;48.094;7.970;2022-09-13T02:30:10;15.30;32.00
2409;DHT22;8463;48.094;7.970;2022-09-13T02:32:58;15.30;31.80
2409;DHT22;8463;48.094;7.970;2022-09-13T02:37:59;15.20;32.90
2409;DHT22;8463;48.094;7.970;2022-09-13T02:40:31;15.10;33.00
2409;DHT22;8463;48.094;7.970;2022-09-13T02:43:07;14.90;33.60
2409;DHT22;8463;48.094;7.970;2022-09-13T02:51:28;14.80;34.10
2409;DHT22;8463;48.094;7.970;2022-09-13T02:57:13;14.80;35.10
2409;DHT22;8463;48.094;7.970;2022-09-13T02:59:45;14.80;35.20
2409;DHT22;8463;48.094;7.970;2022-09-13T03:02:14;14.90;34.40
2409;DHT22;8463;48.094;7.970;2022-09-13T03:04:41;15.00;33.90
2409;DHT22;8463;48.094;7.970;2022-09-13T03:07:13;15.10;33.80
2409;DHT22;8463;48.094;7.970;2022-09-13T03:09:50;15.00;33.00
2409;DHT22;8463;48.094;7.970;2022-09-13T03:15:27;14.80;33.90
2409;DHT22;8463;48.094;7.970;2022-09-13T03:23:33;14.70;35.80
2409;DHT22;8463;48.094;7.970;2022-09-13T03:26:26;14.70;35.90
2409;DHT22;8463;48.094;7.970;2022-09-13T03:31:26;14.80;34.60
2409;DHT22;8463;48.094;7.970;2022-09-13T03:34:11;14.80;35.20
2409;DHT22;8463;48.094;7.970;2022-09-13T03:36:53;14.70;35.80
2409;DHT22;8463;48.094;7.970;2022-09-13T03:40:06;14.70;35.50
2409;DHT22;8463;48.094;7.970;2022-09-13T03:42:51;14.70;35.70
2409;DHT22;8463;48.094;7.970;2022-09-13T03:45:21;14.70;36.10
2409;DHT22;8463;48.094;7.970;2022-09-13T03:47:49;14.70;35.20
2409;DHT22;8463;48.094;7.970;2022-09-13T03:50:20;14.70;35.20
2409;DHT22;8463;48.094;7.970;2022-09-13T03:52:49;14.70;35.30
2409;DHT22;8463;48.094;7.970;2022-09-13T03:55:19;14.70;34.80
2409;DHT22;8463;48.094;7.970;2022-09-13T03:57:45;14.70;34.30
2409;DHT22;8463;48.094;7.970;2022-09-13T04:00:12;14.70;34.00
2409;DHT22;8463;48.094;7.970;2022-09-13T04:02:38;14.70;34.60
2409;DHT22;8463;48.094;7.970;2022-09-13T04:05:04;14.80;34.70
2409;DHT22;8463;48.094;7.970;2022-09-13T04:07:30;14.80;34.60
2409;DHT22;8463;48.094;7.970;2022-09-13T04:09:55;14.80;34.70
2409;DHT22;8463;48.094;7.970;2022-09-13T04:12:21;14.80;34.70
2409;DHT22;8463;48.094;7.970;2022-09-13T04:14:47;14.80;34.40
2409;DHT22;8463;48.094;7.970;2022-09-13T04:17:13;14.90;34.30
2409;DHT22;8463;48.094;7.970;2022-09-13T04:19:39;14.90;34.00
2409;DHT22;8463;48.094;7.970;2022-09-13T04:22:05;14.90;34.10
2409;DHT22;8463;48.094;7.970;2022-09-13T04:24:31;14.90;33.80
2409;DHT22;8463;48.094;7.970;2022-09-13T04:26:57;15.00;33.40
2409;DHT22;8463;48.094;7.970;2022-09-13T04:29:24;15.00;32.90
2409;DHT22;8463;48.094;7.970;2022-09-13T04:31:52;14.90;32.90
2409;DHT22;8463;48.094;7.970;2022-09-13T04:34:18;14.90;33.30
2409;DHT22;8463;48.094;7.970;2022-09-13T04:36:45;14.80;33.90
2409;DHT22;8463;48.094;7.970;2022-09-13T04:39:11;14.80;34.10
2409;DHT22;8463;48.094;7.970;2022-09-13T04:41:43;14.80;34.20
2409;DHT22;8463;48.094;7.970;2022-09-13T04:44:11;14.90;34.10
2409;DHT22;8463;48.094;7.970;2022-09-13T04:46:37;14.90;33.90
2409;DHT22;8463;48.094;7.970;2022-09-13T04:49:03;14.90;33.60
2409;DHT22;8463;48.094;7.970;2022-09-13T04:51:29;14.80;34.20
2409;DHT22;8463;48.094;7.970;2022-09-13T04:53:55;14.90;34.20
2409;DHT22;8463;48.094;7.970;2022-09-13T04:56:22;15.10;49.90
2409;DHT22;8463;48.094;7.970;2022-09-13T04:58:52;15.40;46.50
2409;DHT22;8463;48.094;7.970;2022-09-13T05:01:19;15.70;43.20
2409;DHT22;8463;48.094;7.970;2022-09-13T05:03:45;16.10;39.50
2409;DHT22;8463;48.094;7.970;2022-09-13T05:06:13;16.20;37.30
2409;DHT22;8463;48.094;7.970;2022-09-13T05:08:39;16.30;34.20
2409;DHT22;8463;48.094;7.970;2022-09-13T05:11:06;16.20;31.10
2409;DHT22;8463;48.094;7.970;2022-09-13T05:13:33;16.10;30.40
2409;DHT22;8463;48.094;7.970;2022-09-13T05:16:01;15.80;30.60
2409;DHT22;8463;48.094;7.970;2022-09-13T05:18:32;15.60;31.30
2409;DHT22;8463;48.094;7.970;2022-09-13T05:20:59;15.50;31.80
2409;DHT22;8463;48.094;7.970;2022-09-13T05:23:26;15.50;33.70
2409;DHT22;8463;48.094;7.970;2022-09-13T05:25:56;15.50;34.50
2409;DHT22;8463;48.094;7.970;2022-09-13T05:28:23;15.50;31.80
2409;DHT22;8463;48.094;7.970;2022-09-13T05:31:06;15.30;32.30
2409;DHT22;8463;48.094;7.970;2022-09-13T05:33:35;15.30;33.90
2409;DHT22;8463;48.094;7.970;2022-09-13T05:38:28;15.20;33.30
2409;DHT22;8463;48.094;7.970;2022-09-13T05:41:00;15.30;33.60
2409;DHT22;8463;48.094;7.970;2022-09-13T05:43:28;15.40;32.50
2409;DHT22;8463;48.094;7.970;2022-09-13T05:46:05;15.20;33.40
2409;DHT22;8463;48.094;7.970;2022-09-13T05:48:32;15.00;33.70
2409;DHT22;8463;48.094;7.970;2022-09-13T05:53:32;14.90;35.00
2409;DHT22;8463;48.094;7.970;2022-09-13T05:55:58;14.90;36.40
2409;DHT22;8463;48.094;7.970;2022-09-13T05:58:23;14.70;36.80
2409;DHT22;8463;48.094;7.970;2022-09-13T06:00:53;14.80;36.70
2409;DHT22;8463;48.094;7.970;2022-09-13T06:03:20;14.90;36.80
2409;DHT22;8463;48.094;7.970;2022-09-13T06:05:46;15.00;37.10
2409;DHT22;8463;48.094;7.970;2022-09-13T06:08:11;15.20;36.70
2409;DHT22;8463;48.094;7.970;2022-09-13T06:10:37;15.30;36.20
2409;DHT22;8463;48.094;7.970;2022-09-13T06:13:02;15.40;35.20
2409;DHT22;8463;48.094;7.970;2022-09-13T06:15:28;15.50;35.00
2409;DHT22;8463;48.094;7.970;2022-09-13T06:20:20;15.70;34.40
2409;DHT22;8463;48.094;7.970;2022-09-13T06:22:47;15.80;34.50
2409;DHT22;8463;48.094;7.970;2022-09-13T06:27:39;16.10;32.70
2409;DHT22;8463;48.094;7.970;2022-09-13T06:30:06;16.30;32.00
2409;DHT22;8463;48.094;7.970;2022-09-13T06:32:33;16.30;31.30
2409;DHT22;8463;48.094;7.970;2022-09-13T06:34:59;16.40;32.20
2409;DHT22;8463;48.094;7.970;2022-09-13T06:39:51;16.50;32.20
2409;DHT22;8463;48.094;7.970;2022-09-13T06:42:16;16.70;31.90
2409;DHT22;8463;48.094;7.970;2022-09-13T06:44:42;17.00;30.60
2409;DHT22;8463;48.094;7.970;2022-09-13T06:47:10;17.10;30.60
2409;DHT22;8463;48.094;7.970;2022-09-13T06:49:37;17.40;29.80
2409;DHT22;8463;48.094;7.970;2022-09-13T06:52:03;17.50;29.00
2409;DHT22;8463;48.094;7.970;2022-09-13T06:56:55;17.80;27.40
2409;DHT22;8463;48.094;7.970;2022-09-13T06:59:20;18.00;27.50
2409;DHT22;8463;48.094;7.970;2022-09-13T07:06:45;18.70;25.80
2409;DHT22;8463;48.094;7.970;2022-09-13T07:09:17;18.90;25.60
2409;DHT22;8463;48.094;7.970;2022-09-13T07:11:43;19.20;24.80
2409;DHT22;8463;48.094;7.970;2022-09-13T07:14:18;19.10;24.50
2409;DHT22;8463;48.094;7.970;2022-09-13T07:19:17;19.40;25.20
2409;DHT22;8463;48.094;7.970;2022-09-13T07:21:45;19.50;24.80
2409;DHT22;8463;48.094;7.970;2022-09-13T07:24:11;19.70;24.70
2409;DHT22;8463;48.094;7.970;2022-09-13T07:26:37;19.80;24.20
2409;DHT22;8463;48.094;7.970;2022-09-13T07:29:09;19.80;23.90
2409;DHT22;8463;48.094;7.970;2022-09-13T07:31:38;19.90;23.20
2409;DHT22;8463;48.094;7.970;2022-09-13T07:34:07;20.10;22.80
2409;DHT22;8463;48.094;7.970;2022-09-13T07:36:34;20.10;23.20
2409;DHT22;8463;48.094;7.970;2022-09-13T07:39:01;20.60;22.90
2409;DHT22;8463;48.094;7.970;2022-09-13T07:41:28;20.60;23.90
2409;DHT22;8463;48.094;7.970;2022-09-13T07:46:23;21.10;22.60
2409;DHT22;8463;48.094;7.970;2022-09-13T07:48:51;21.20;23.10
2409;DHT22;8463;48.094;7.970;2022-09-13T07:51:19;21.30;22.30
2409;DHT22;8463;48.094;7.970;2022-09-13T07:53:46;21.50;21.60
2409;DHT22;8463;48.094;7.970;2022-09-13T07:56:20;21.60;22.70
2409;DHT22;8463;48.094;7.970;2022-09-13T07:58:47;21.80;21.60
2409;DHT22;8463;48.094;7.970;2022-09-13T08:01:22;22.00;22.70
2409;DHT22;8463;48.094;7.970;2022-09-13T08:03:59;22.20;22.00
2409;DHT22;8463;48.094;7.970;2022-09-13T08:06:27;22.20;22.10
2409;DHT22;8463;48.094;7.970;2022-09-13T08:08:53;22.40;21.80
2409;DHT22;8463;48.094;7.970;2022-09-13T08:11:28;22.40;21.20
2409;DHT22;8463;48.094;7.970;2022-09-13T08:13:54;22.40;22.40
2409;DHT22;8463;48.094;7.970;2022-09-13T08:16:21;22.50;22.20
2409;DHT22;8463;48.094;7.970;2022-09-13T08:21:15;22.70;20.50
2409;DHT22;8463;48.094;7.970;2022-09-13T08:23:41;22.70;21.40
2409;DHT22;8463;48.094;7.970;2022-09-13T08:28:35;22.80;21.50
2409;DHT22;8463;48.094;7.970;2022-09-13T08:31:06;22.90;22.00
2409;DHT22;8463;48.094;7.970;2022-09-13T08:33:32;22.90;21.50
2409;DHT22;8463;48.094;7.970;2022-09-13T08:35:58;23.00;19.80
2409;DHT22;8463;48.094;7.970;2022-09-13T08:38:24;23.10;20.90
2409;DHT22;8463;48.094;7.970;2022-09-13T08:40:54;23.50;20.20
2409;DHT22;8463;48.094;7.970;2022-09-13T08:43:42;23.80;20.30
2409;DHT22;8463;48.094;7.970;2022-09-13T08:48:59;24.20;19.70
2409;DHT22;8463;48.094;7.970;2022-09-13T08:51:43;24.30;18.70
2409;DHT22;8463;48.094;7.970;2022-09-13T08:54:12;24.40;19.10
2409;DHT22;8463;48.094;7.970;2022-09-13T09:04:45;25.10;18.90
2409;DHT22;8463;48.094;7.970;2022-09-13T09:07:27;25.20;19.10
2409;DHT22;8463;48.094;7.970;2022-09-13T09:10:10;25.40;17.60
2409;DHT22;8463;48.094;7.970;2022-09-13T09:12:43;25.60;17.40
2409;DHT22;8463;48.094;7.970;2022-09-13T09:15:22;25.90;15.80
2409;DHT22;8463;48.094;7.970;2022-09-13T09:18:05;26.10;14.50
2409;DHT22;8463;48.094;7.970;2022-09-13T09:20:43;26.50;14.90
2409;DHT22;8463;48.094;7.970;2022-09-13T09:23:20;26.50;11.20
2409;DHT22;8463;48.094;7.970;2022-09-13T09:25:46;26.30;10.50
2409;DHT22;8463;48.094;7.970;2022-09-13T09:28:14;25.90;10.00
2409;DHT22;8463;48.094;7.970;2022-09-13T09:30:59;25.30;10.00
2409;DHT22;8463;48.094;7.970;2022-09-13T09:33:48;24.90;11.20
2409;DHT22;8463;48.094;7.970;2022-09-13T09:36:38;24.70;11.60
2409;DHT22;8463;48.094;7.970;2022-09-13T09:39:06;24.60;10.30
2409;DHT22;8463;48.094;7.970;2022-09-13T09:41:35;24.40;10.80
2409;DHT22;8463;48.094;7.970;2022-09-13T09:44:42;24.30;10.40
2409;DHT22;8463;48.094;7.970;2022-09-13T09:47:25;24.20;10.20
2409;DHT22;8463;48.094;7.970;2022-09-13T09:50:00;24.20;10.40
2409;DHT22;8463;48.094;7.970;2022-09-13T09:53:02;24.20;10.10
2409;DHT22;8463;48.094;7.970;2022-09-13T09:58:16;24.40;8.80
2409;DHT22;8463;48.094;7.970;2022-09-13T10:03:24;24.70;8.80
2409;DHT22;8463;48.094;7.970;2022-09-13T10:06:05;24.90;9.20
2409;DHT22;8463;48.094;7.970;2022-09-13T10:08:35;24.90;7.70
2409;DHT22;8463;48.094;7.970;2022-09-13T10:11:02;24.80;9.10
2409;DHT22;8463;48.094;7.970;2022-09-13T10:13:29;25.20;9.50
2409;DHT22;8463;48.094;7.970;2022-09-13T10:16:00;25.40;7.50
2409;DHT22;8463;48.094;7.970;2022-09-13T10:18:34;25.30;7.50
2409;DHT22;8463;48.094;7.970;2022-09-13T10:23:40;25.80;6.40
2409;DHT22;8463;48.094;7.970;2022-09-13T10:26:14;26.00;6.50
2409;DHT22;8463;48.094;7.970;2022-09-13T10:28:45;26.10;5.00
2409;DHT22;8463;48.094;7.970;2022-09-13T10:31:14;26.20;5.90
2409;DHT22;8463;48.094;7.970;2022-09-13T10:33:55;26.40;5.10
2409;DHT22;8463;48.094;7.970;2022-09-13T10:36:28;26.50;4.30
2409;DHT22;8463;48.094;7.970;2022-09-13T10:39:00;26.60;4.20
2409;DHT22;8463;48.094;7.970;2022-09-13T10:41:29;26.60;4.80
2409;DHT22;8463;48.094;7.970;2022-09-13T10:43:57;26.70;5.70
2409;DHT22;8463;48.094;7.970;2022-09-13T10:46:24;26.80;4.50
2409;DHT22;8463;48.094;7.970;2022-09-13T10:48:50;26.90;3.10
2409;DHT22;8463;48.094;7.970;2022-09-13T10:54:22;27.00;3.10
2409;DHT22;8463;48.094;7.970;2022-09-13T10:56:48;27.00;4.70
2409;DHT22;8463;48.094;7.970;2022-09-13T11:12:20;27.40;3.10
2409;DHT22;8463;48.094;7.970;2022-09-13T11:17:23;27.60;1.90
2409;DHT22;8463;48.094;7.970;2022-09-13T11:28:40;28.80;1.00
2409;DHT22;8463;48.094;7.970;2022-09-13T11:41:45;29.70;1.00
2409;DHT22;8463;48.094;7.970;2022-09-13T11:52:54;29.60;1.00
2409;DHT22;8463;48.094;7.970;2022-09-13T11:55:54;29.20;1.00
2409;DHT22;8463;48.094;7.970;2022-09-13T11:58:53;28.90;1.00
2409;DHT22;8463;48.094;7.970;2022-09-13T12:06:39;28.60;1.00
2409;DHT22;8463;48.094;7.970;2022-09-13T12:09:18;28.60;1.00
2409;DHT22;8463;48.094;7.970;2022-09-13T12:14:22;28.60;1.00
2409;DHT22;8463;48.094;7.970;2022-09-13T12:19:27;28.40;1.00
2409;DHT22;8463;48.094;7.970;2022-09-13T12:21:55;28.50;1.00
2409;DHT22;8463;48.094;7.970;2022-09-13T12:27:09;28.50;1.00
2409;DHT22;8463;48.094;7.970;2022-09-13T12:29:50;28.60;1.00
2409;DHT22;8463;48.094;7.970;2022-09-13T12:32:17;28.70;1.00
2409;DHT22;8463;48.094;7.970;2022-09-13T12:34:57;28.80;1.00
2409;DHT22;8463;48.094;7.970;2022-09-13T12:46:29;28.00;1.00
2409;DHT22;8463;48.094;7.970;2022-09-13T12:49:31;27.90;1.00
2409;DHT22;8463;48.094;7.970;2022-09-13T12:52:19;27.90;1.00
2409;DHT22;8463;48.094;7.970;2022-09-13T12:57:53;28.00;1.00
2409;DHT22;8463;48.094;7.970;2022-09-13T13:03:04;28.00;1.00
2409;DHT22;8463;48.094;7.970;2022-09-13T13:05:47;28.20;1.00
2409;DHT22;8463;48.094;7.970;2022-09-13T13:11:00;28.20;1.00
2409;DHT22;8463;48.094;7.970;2022-09-13T13:13:39;28.20;1.80
2409;DHT22;8463;48.094;7.970;2022-09-13T13:16:32;28.20;1.60
2409;DHT22;8463;48.094;7.970;2022-09-13T13:19:03;28.10;2.50
2409;DHT22;8463;48.094;7.970;2022-09-13T13:21:37;28.10;2.00
2409;DHT22;8463;48.094;7.970;2022-09-13T13:26:50;27.90;2.40
2409;DHT22;8463;48.094;7.970;2022-09-13T13:36:50;27.50;3.60
2409;DHT22;8463;48.094;7.970;2022-09-13T13:42:25;27.80;3.00
2409;DHT22;8463;48.094;7.970;2022-09-13T14:00:17;28.60;2.80
2409;DHT22;8463;48.094;7.970;2022-09-13T14:19:30;30.50;1.00
2409;DHT22;8463;48.094;7.970;2022-09-13T14:22:22;30.60;1.00
2409;DHT22;8463;48.094;7.970;2022-09-13T14:24:56;30.50;1.00
2409;DHT22;8463;48.094;7.970;2022-09-13T14:32:24;30.30;1.00
2409;DHT22;8463;48.094;7.970;2022-09-13T14:37:26;30.20;1.00
2409;DHT22;8463;48.094;7.970;2022-09-13T14:42:42;29.60;1.10
2409;DHT22;8463;48.094;7.970;2022-09-13T14:45:32;29.60;1.00
2409;DHT22;8463;48.094;7.970;2022-09-13T14:48:09;29.40;4.10
2409;DHT22;8463;48.094;7.970;2022-09-13T14:50:55;29.00;2.90
2409;DHT22;8463;48.094;7.970;2022-09-13T14:53:24;28.80;6.30
2409;DHT22;8463;48.094;7.970;2022-09-13T14:56:02;28.50;7.00
2409;DHT22;8463;48.094;7.970;2022-09-13T15:01:13;28.40;7.60
2409;DHT22;8463;48.094;7.970;2022-09-13T15:03:43;28.60;7.90
2409;DHT22;8463;48.094;7.970;2022-09-13T15:06:21;28.50;8.00
2409;DHT22;8463;48.094;7.970;2022-09-13T15:11:25;28.20;11.70
2409;DHT22;8463;48.094;7.970;2022-09-13T15:17:08;28.20;10.90
2409;DHT22;8463;48.094;7.970;2022-09-13T15:19:36;28.00;12.20
2409;DHT22;8463;48.094;7.970;2022-09-13T15:22:40;28.00;13.20
2409;DHT22;8463;48.094;7.970;2022-09-13T15:25:27;27.80;14.80
2409;DHT22;8463;48.094;7.970;2022-09-13T15:27:55;27.60;15.40
2409;DHT22;8463;48.094;7.970;2022-09-13T15:30:25;27.60;16.40
2409;DHT22;8463;48.094;7.970;2022-09-13T15:35:46;27.20;16.90
2409;DHT22;8463;48.094;7.970;2022-09-13T15:43:36;27.00;17.50
2409;DHT22;8463;48.094;7.970;2022-09-13T15:46:01;27.00;17.80
2409;DHT22;8463;48.094;7.970;2022-09-13T15:48:29;27.00;18.40
2409;DHT22;8463;48.094;7.970;2022-09-13T15:51:10;27.00;18.40
2409;DHT22;8463;48.094;7.970;2022-09-13T15:53:38;27.00;17.70
2409;DHT22;8463;48.094;7.970;2022-09-13T15:58:32;27.50;17.10
2409;DHT22;8463;48.094;7.970;2022-09-13T16:00:58;27.60;17.10
2409;DHT22;8463;48.094;7.970;2022-09-13T16:03:24;27.60;17.20
2409;DHT22;8463;48.094;7.970;2022-09-13T16:05:50;27.80;16.10
2409;DHT22;8463;48.094;7.970;2022-09-13T16:08:16;27.80;16.10
2409;DHT22;8463;48.094;7.970;2022-09-13T16:10:41;27.90;16.20
2409;DHT22;8463;48.094;7.970;2022-09-13T16:13:07;27.80;15.30
2409;DHT22;8463;48.094;7.970;2022-09-13T16:15:33;27.80;15.50
2409;DHT22;8463;48.094;7.970;2022-09-13T16:20:25;27.40;17.20
2409;DHT22;8463;48.094;7.970;2022-09-13T16:22:52;27.00;18.90
2409;DHT22;8463;48.094;7.970;2022-09-13T16:27:44;26.40;22.00
2409;DHT22;8463;48.094;7.970;2022-09-13T16:30:17;26.40;22.80
2409;DHT22;8463;48.094;7.970;2022-09-13T16:32:48;26.30;24.10
2409;DHT22;8463;48.094;7.970;2022-09-13T16:35:14;26.10;25.70
2409;DHT22;8463;48.094;7.970;2022-09-13T16:37:41;26.00;25.20
2409;DHT22;8463;48.094;7.970;2022-09-13T16:42:35;25.80;24.60
2409;DHT22;8463;48.094;7.970;2022-09-13T16:47:27;25.70;24.40
2409;DHT22;8463;48.094;7.970;2022-09-13T16:49:53;25.70;25.60
2409;DHT22;8463;48.094;7.970;2022-09-13T16:52:18;25.50;27.10
2409;DHT22;8463;48.094;7.970;2022-09-13T16:54:44;25.40;27.00
2409;DHT22;8463;48.094;7.970;2022-09-13T16:57:13;25.40;26.60
2409;DHT22;8463;48.094;7.970;2022-09-13T17:02:11;25.30;25.20
2409;DHT22;8463;48.094;7.970;2022-09-13T17:04:37;25.40;25.90
2409;DHT22;8463;48.094;7.970;2022-09-13T17:07:03;25.50;25.80
2409;DHT22;8463;48.094;7.970;2022-09-13T17:09:30;25.50;25.90
2409;DHT22;8463;48.094;7.970;2022-09-13T17:11:56;25.40;25.70
2409;DHT22;8463;48.094;7.970;2022-09-13T17:14:22;25.30;26.20
2409;DHT22;8463;48.094;7.970;2022-09-13T17:16:50;25.10;27.10
2409;DHT22;8463;48.094;7.970;2022-09-13T17:19:23;25.00;27.90
2409;DHT22;8463;48.094;7.970;2022-09-13T17:21:50;24.90;28.10
2409;DHT22;8463;48.094;7.970;2022-09-13T17:26:43;24.90;26.80
2409;DHT22;8463;48.094;7.970;2022-09-13T17:29:12;24.90;26.90
2409;DHT22;8463;48.094;7.970;2022-09-13T17:31:38;24.70;27.70
2409;DHT22;8463;48.094;7.970;2022-09-13T17:38:57;24.40;27.80
2409;DHT22;8463;48.094;7.970;2022-09-13T17:41:23;24.30;28.10
2409;DHT22;8463;48.094;7.970;2022-09-13T17:43:50;24.40;27.50
2409;DHT22;8463;48.094;7.970;2022-09-13T17:46:18;24.10;27.40
2409;DHT22;8463;48.094;7.970;2022-09-13T17:48:49;24.20;28.10
2409;DHT22;8463;48.094;7.970;2022-09-13T17:51:18;24.10;27.70
2409;DHT22;8463;48.094;7.970;2022-09-13T17:53:46;24.00;28.10
2409;DHT22;8463;48.094;7.970;2022-09-13T17:56:22;24.10;28.30
2409;DHT22;8463;48.094;7.970;2022-09-13T18:03:42;24.40;29.30
2409;DHT22;8463;48.094;7.970;2022-09-13T18:06:09;24.40;28.90
2409;DHT22;8463;48.094;7.970;2022-09-13T18:08:36;24.50;28.70
2409;DHT22;8463;48.094;7.970;2022-09-13T18:11:11;24.40;28.60
2409;DHT22;8463;48.094;7.970;2022-09-13T18:13:37;24.40;28.60
2409;DHT22;8463;48.094;7.970;2022-09-13T18:16:09;24.40;28.90
2409;DHT22;8463;48.094;7.970;2022-09-13T18:18:36;24.40;28.60
2409;DHT22;8463;48.094;7.970;2022-09-13T18:21:03;24.40;28.60
2409;DHT22;8463;48.094;7.970;2022-09-13T18:25:58;24.00;28.90
2409;DHT22;8463;48.094;7.970;2022-09-13T18:28:24;23.80;29.30
2409;DHT22;8463;48.094;7.970;2022-09-13T18:33:17;23.90;28.50
2409;DHT22;8463;48.094;7.970;2022-09-13T18:38:19;24.00;29.30
2409;DHT22;8463;48.094;7.970;2022-09-13T18:40:45;24.00;29.40
2409;DHT22;8463;48.094;7.970;2022-09-13T18:43:10;24.00;29.60
2409;DHT22;8463;48.094;7.970;2022-09-13T18:45:36;24.00;29.40
2409;DHT22;8463;48.094;7.970;2022-09-13T18:50:28;24.00;30.00
2409;DHT22;8463;48.094;7.970;2022-09-13T18:55:19;24.00;29.80
2409;DHT22;8463;48.094;7.970;2022-09-13T18:57:45;23.90;29.70
2409;DHT22;8463;48.094;7.970;2022-09-13T19:00:11;24.00;29.70
2409;DHT22;8463;48.094;7.970;2022-09-13T19:02:36;23.90;29.40
2409;DHT22;8463;48.094;7.970;2022-09-13T19:05:02;23.80;29.70
2409;DHT22;8463;48.094;7.970;2022-09-13T19:07:28;23.80;29.90
2409;DHT22;8463;48.094;7.970;2022-09-13T19:09:54;23.70;29.50
2409;DHT22;8463;48.094;7.970;2022-09-13T19:12:20;23.60;29.80
2409;DHT22;8463;48.094;7.970;2022-09-13T19:14:46;23.60;30.70
2409;DHT22;8463;48.094;7.970;2022-09-13T19:17:12;23.70;30.80
2409;DHT22;8463;48.094;7.970;2022-09-13T19:19:39;23.70;30.80
2409;DHT22;8463;48.094;7.970;2022-09-13T19:22:05;23.70;30.20
2409;DHT22;8463;48.094;7.970;2022-09-13T19:24:30;23.70;30.10
2409;DHT22;8463;48.094;7.970;2022-09-13T19:26:56;23.70;30.00
2409;DHT22;8463;48.094;7.970;2022-09-13T19:29:22;23.70;30.00
2409;DHT22;8463;48.094;7.970;2022-09-13T19:31:49;23.70;30.10
2409;DHT22;8463;48.094;7.970;2022-09-13T19:34:20;23.60;30.30
2409;DHT22;8463;48.094;7.970;2022-09-13T19:36:46;23.40;31.70
2409;DHT22;8463;48.094;7.970;2022-09-13T19:39:13;23.20;33.20
2409;DHT22;8463;48.094;7.970;2022-09-13T19:41:39;23.10;32.90
2409;DHT22;8463;48.094;7.970;2022-09-13T19:44:06;23.10;32.80
2409;DHT22;8463;48.094;7.970;2022-09-13T19:46:35;23.10;32.60
2409;DHT22;8463;48.094;7.970;2022-09-13T19:51:31;23.20;33.10
2409;DHT22;8463;48.094;7.970;2022-09-13T19:53:58;23.20;33.20
2409;DHT22;8463;48.094;7.970;2022-09-13T19:56:27;23.30;33.50
2409;DHT22;8463;48.094;7.970;2022-09-13T19:58:53;23.20;33.20
2409;DHT22;8463;48.094;7.970;2022-09-13T20:01:33;23.20;33.00
2409;DHT22;8463;48.094;7.970;2022-09-13T20:04:02;23.20;33.20
2409;DHT22;8463;48.094;7.970;2022-09-13T20:06:39;23.20;33.30
2409;DHT22;8463;48.094;7.970;2022-09-13T20:09:06;23.20;32.80
2409;DHT22;8463;48.094;7.970;2022-09-13T20:11:33;23.30;32.70
2409;DHT22;8463;48.094;7.970;2022-09-13T20:18:54;23.10;30.90
2409;DHT22;8463;48.094;7.970;2022-09-13T20:23:47;23.10;32.20
2409;DHT22;8463;48.094;7.970;2022-09-13T20:26:18;23.20;32.60
2409;DHT22;8463;48.094;7.970;2022-09-13T20:28:45;23.00;32.50
2409;DHT22;8463;48.094;7.970;2022-09-13T20:31:12;23.00;32.70
2409;DHT22;8463;48.094;7.970;2022-09-13T20:33:38;22.90;32.40
2409;DHT22;8463;48.094;7.970;2022-09-13T20:36:10;22.90;33.10
2409;DHT22;8463;48.094;7.970;2022-09-13T20:38:36;22.90;32.80
2409;DHT22;8463;48.094;7.970;2022-09-13T20:41:13;23.00;32.70
2409;DHT22;8463;48.094;7.970;2022-09-13T20:43:39;23.00;32.70
2409;DHT22;8463;48.094;7.970;2022-09-13T20:46:06;22.70;34.30
2409;DHT22;8463;48.094;7.970;2022-09-13T20:48:33;22.50;35.90
2409;DHT22;8463;48.094;7.970;2022-09-13T20:51:03;22.40;36.20
2409;DHT22;8463;48.094;7.970;2022-09-13T20:53:30;22.40;37.40
2409;DHT22;8463;48.094;7.970;2022-09-13T20:56:04;22.50;38.80
2409;DHT22;8463;48.094;7.970;2022-09-13T20:58:30;22.40;39.10
2409;DHT22;8463;48.094;7.970;2022-09-13T21:01:01;22.60;39.30
2409;DHT22;8463;48.094;7.970;2022-09-13T21:03:28;22.60;39.20
2409;DHT22;8463;48.094;7.970;2022-09-13T21:05:53;22.60;38.90
2409;DHT22;8463;48.094;7.970;2022-09-13T21:11:04;22.70;39.30
2409;DHT22;8463;48.094;7.970;2022-09-13T21:13:32;22.70;39.30
2409;DHT22;8463;48.094;7.970;2022-09-13T21:16:09;22.70;39.10
2409;DHT22;8463;48.094;7.970;2022-09-13T21:18:35;22.70;38.90
2409;DHT22;8463;48.094;7.970;2022-09-13T21:21:03;22.60;38.70
2409;DHT22;8463;48.094;7.970;2022-09-13T21:23:30;22.60;38.10
2409;DHT22;8463;48.094;7.970;2022-09-13T21:26:03;22.50;38.10
2409;DHT22;8463;48.094;7.970;2022-09-13T21:28:31;22.40;38.30
2409;DHT22;8463;48.094;7.970;2022-09-13T21:31:01;22.40;38.10
2409;DHT22;8463;48.094;7.970;2022-09-13T21:35:58;22.50;38.10